Time;durP1;ratioP1;P1;durP2;ratioP2;P2;SDS_P1;SDS_P2;PMS_P1;PMS_P2;Temp;Humidity;BMP_temperature;BMP_pressure;BME280_temperature;BME280_humidity;BME280_pressure;Samples;Min_cycle;Max_cycle;Signal;HPM_P1;HPM_P2
2021/08/21 00:01:00;;;;;;;13.55;12.15;;;;;;;;;;5069145;28;20722;-70
2021/08/21 00:03:25;;;;;;;14.23;10.98;;;;;;;;;;5069647;28;20173;-70
2021/08/21 00:05:50;;;;;;;17.07;11.63;;;;;;;;;;5062934;28;20191;-70
2021/08/21 00:08:15;;;;;;;17.10;11.80;;;;;;;;;;5064296;28;20536;-70
2021/08/21 00:10:40;;;;;;;10.47;9.13;;;;;;;;;;5046820;28;20411;-70
2021/08/21 00:13:06;;;;;;;14.27;11.27;;;;;;;;;;5065962;28;20434;-70
2021/08/21 00:15:31;;;;;;;12.57;10.38;;;;;;;;;;5072226;28;20258;-70
2021/08/21 00:17:56;;;;;;;11.00;9.77;;;;;;;;;;5066330;28;20197;-70
2021/08/21 00:20:22;;;;;;;12.18;10.00;;;;;;;;;;5059736;28;20269;-71
2021/08/21 00:22:47;;;;;;;16.25;12.15;;;;;;;;;;5066108;28;20184;-70
2021/08/21 00:25:13;;;;;;;12.77;11.02;;;;;;;;;;5065041;28;20208;-70
2021/08/21 00:27:39;;;;;;;11.23;10.02;;;;;;;;;;5063207;28;20241;-70
2021/08/21 00:30:04;;;;;;;11.13;9.77;;;;;;;;;;5064206;28;20201;-70
2021/08/21 00:32:30;;;;;;;10.32;9.23;;;;;;;;;;5063110;28;20662;-70
2021/08/21 00:34:55;;;;;;;9.05;8.15;;;;;;;;;;5063388;28;20201;-70
2021/08/21 00:37:20;;;;;;;12.15;10.13;;;;;;;;;;5068716;28;20290;-70
2021/08/21 00:39:45;;;;;;;11.05;9.45;;;;;;;;;;5069379;28;20177;-70
2021/08/21 00:42:11;;;;;;;14.80;10.00;;;;;;;;;;5069363;28;20184;-70
2021/08/21 00:44:37;;;;;;;17.35;12.52;;;;;;;;;;5069332;28;20414;-70
2021/08/21 00:47:12;;;;;;;16.60;13.10;;;;;;;;;;5062937;28;20706;-70
2021/08/21 00:49:39;;;;;;;13.63;12.20;;;;;;;;;;5069169;28;20261;-70
2021/08/21 00:52:05;;;;;;;17.15;14.20;;;;;;;;;;5068610;28;20192;-70
2021/08/21 00:54:31;;;;;;;14.20;11.93;;;;;;;;;;5068825;28;20342;-70
2021/08/21 00:57:02;;;;;;;28.58;15.20;;;;;;;;;;5068616;28;20276;-70
2021/08/21 00:59:37;;;;;;;19.75;14.63;;;;;;;;;;5065567;28;20185;-70
2021/08/21 01:02:06;;;;;;;24.25;15.13;;;;;;;;;;5069060;28;20233;-70
2021/08/21 01:04:32;;;;;;;16.95;11.90;;;;;;;;;;5067939;28;20537;-71
2021/08/21 01:06:59;;;;;;;15.13;12.10;;;;;;;;;;5062073;28;20202;-70
2021/08/21 01:09:24;;;;;;;17.75;13.38;;;;;;;;;;5067573;28;20209;-70
2021/08/21 01:11:49;;;;;;;19.90;16.08;;;;;;;;;;5065997;28;20638;-70
2021/08/21 01:14:14;;;;;;;43.25;18.42;;;;;;;;;;5067055;28;20215;-71
2021/08/21 01:16:40;;;;;;;25.98;17.70;;;;;;;;;;5070593;28;20218;-71
2021/08/21 01:19:05;;;;;;;31.30;20.67;;;;;;;;;;5069036;28;20192;-71
2021/08/21 01:21:30;;;;;;;25.80;17.77;;;;;;;;;;5048487;28;20304;-71
2021/08/21 01:23:55;;;;;;;22.50;15.95;;;;;;;;;;5065963;28;20275;-71
2021/08/21 01:26:22;;;;;;;22.90;15.23;;;;;;;;;;5046761;28;20209;-71
2021/08/21 01:28:47;;;;;;;18.63;14.20;;;;;;;;;;5051805;28;20217;-71
2021/08/21 01:31:12;;;;;;;20.02;14.65;;;;;;;;;;5067235;28;20485;-71
2021/08/21 01:33:38;;;;;;;16.77;12.77;;;;;;;;;;5066111;28;20668;-71
2021/08/21 01:36:03;;;;;;;21.80;15.77;;;;;;;;;;5066347;28;20184;-71
2021/08/21 01:38:29;;;;;;;21.63;16.55;;;;;;;;;;5066527;28;20185;-71
2021/08/21 01:40:54;;;;;;;21.75;16.85;;;;;;;;;;5066347;28;20181;-71
2021/08/21 01:43:20;;;;;;;24.33;15.52;;;;;;;;;;5068490;28;20175;-71
2021/08/21 01:45:45;;;;;;;23.17;16.08;;;;;;;;;;5051788;28;20193;-71
2021/08/21 01:48:14;;;;;;;24.85;16.60;;;;;;;;;;5066915;28;20268;-71
2021/08/21 01:50:39;;;;;;;20.38;13.82;;;;;;;;;;5068200;28;20201;-71
2021/08/21 01:53:09;;;;;;;22.98;15.10;;;;;;;;;;5061744;28;20200;-71
2021/08/21 01:55:34;;;;;;;19.38;13.73;;;;;;;;;;5066437;28;20256;-71
2021/08/21 01:57:59;;;;;;;20.10;14.18;;;;;;;;;;5065158;28;20279;-71
2021/08/21 02:00:28;;;;;;;21.17;14.00;;;;;;;;;;5067570;28;20204;-71
2021/08/21 02:02:54;;;;;;;18.40;12.88;;;;;;;;;;5064779;28;20192;-71
2021/08/21 02:05:19;;;;;;;25.10;14.85;;;;;;;;;;5068518;28;20170;-71
2021/08/21 02:07:44;;;;;;;24.05;15.80;;;;;;;;;;5066942;28;20197;-72
2021/08/21 02:10:09;;;;;;;27.38;17.70;;;;;;;;;;5069085;28;20209;-71
2021/08/21 02:12:35;;;;;;;26.88;16.17;;;;;;;;;;5069331;28;20177;-71
2021/08/21 02:15:02;;;;;;;27.77;18.13;;;;;;;;;;5070885;28;20200;-71
2021/08/21 02:17:28;;;;;;;30.67;19.05;;;;;;;;;;5068868;28;20185;-71
2021/08/21 02:19:53;;;;;;;37.65;18.95;;;;;;;;;;5069784;28;20173;-71
2021/08/21 02:22:18;;;;;;;26.23;16.35;;;;;;;;;;5069784;28;20706;-71
2021/08/21 02:24:51;;;;;;;25.63;16.52;;;;;;;;;;5071241;28;20195;-71
2021/08/21 02:27:21;;;;;;;26.80;16.63;;;;;;;;;;5080105;22;20241;-71
2021/08/21 02:29:46;;;;;;;23.20;14.45;;;;;;;;;;5039227;28;20693;-71
2021/08/21 02:32:11;;;;;;;25.95;16.42;;;;;;;;;;5038492;28;20268;-70
2021/08/21 02:34:37;;;;;;;24.02;14.65;;;;;;;;;;5052615;28;20185;-71
2021/08/21 02:37:03;;;;;;;32.83;19.35;;;;;;;;;;5051971;28;20378;-71
2021/08/21 02:39:28;;;;;;;35.97;19.08;;;;;;;;;;5052253;28;20255;-70
2021/08/21 02:41:53;;;;;;;24.88;16.83;;;;;;;;;;5055594;28;20174;-69
2021/08/21 02:44:18;;;;;;;28.05;17.58;;;;;;;;;;5076554;28;20185;-68
2021/08/21 02:46:43;;;;;;;27.65;18.20;;;;;;;;;;5078229;28;20188;-69
2021/08/21 02:49:09;;;;;;;39.75;21.30;;;;;;;;;;5075942;28;20225;-69
2021/08/21 02:51:35;;;;;;;41.92;23.38;;;;;;;;;;5078197;28;20186;-69
2021/08/21 02:54:00;;;;;;;38.00;22.13;;;;;;;;;;5078395;28;20241;-68
2021/08/21 02:56:25;;;;;;;56.53;23.90;;;;;;;;;;5077273;28;20181;-69
2021/08/21 02:58:50;;;;;;;45.58;24.20;;;;;;;;;;5075876;28;20457;-69
2021/08/21 03:01:15;;;;;;;37.63;22.33;;;;;;;;;;5077462;28;20173;-69
2021/08/21 03:03:40;;;;;;;44.03;23.50;;;;;;;;;;5076569;28;20249;-70
2021/08/21 03:06:06;;;;;;;35.33;20.77;;;;;;;;;;5053344;28;20695;-70
2021/08/21 03:08:31;;;;;;;37.80;20.70;;;;;;;;;;5055984;28;20290;-70
2021/08/21 03:10:56;;;;;;;38.28;22.23;;;;;;;;;;5054379;28;20173;-70
2021/08/21 03:13:21;;;;;;;44.30;21.73;;;;;;;;;;5054255;28;20247;-70
2021/08/21 03:15:46;;;;;;;40.67;22.65;;;;;;;;;;5054790;28;20273;-69
2021/08/21 03:18:12;;;;;;;41.92;22.13;;;;;;;;;;5054740;28;20193;-70
2021/08/21 03:20:37;;;;;;;39.60;21.00;;;;;;;;;;5053515;28;20174;-70
2021/08/21 03:23:02;;;;;;;46.10;23.25;;;;;;;;;;5050928;28;20189;-70
2021/08/21 03:25:27;;;;;;;48.22;27.63;;;;;;;;;;5051543;28;20173;-70
2021/08/21 03:27:52;;;;;;;40.10;23.52;;;;;;;;;;5049129;28;20237;-70
2021/08/21 03:30:18;;;;;;;40.05;24.58;;;;;;;;;;5052402;28;20209;-70
2021/08/21 03:32:43;;;;;;;44.97;23.58;;;;;;;;;;5026447;28;20592;-71
2021/08/21 03:35:09;;;;;;;39.20;23.27;;;;;;;;;;5040039;28;20182;-70
2021/08/21 03:37:34;;;;;;;40.90;21.90;;;;;;;;;;5044401;28;20201;-70
2021/08/21 03:39:59;;;;;;;45.67;24.80;;;;;;;;;;5048379;28;20185;-70
2021/08/21 03:42:24;;;;;;;47.58;25.92;;;;;;;;;;5049771;28;20658;-70
2021/08/21 03:44:50;;;;;;;38.65;23.90;;;;;;;;;;5050997;28;20192;-70
2021/08/21 03:47:15;;;;;;;33.38;20.23;;;;;;;;;;5049040;28;20206;-70
2021/08/21 03:49:40;;;;;;;43.65;24.02;;;;;;;;;;5049821;28;20675;-70
2021/08/21 03:52:05;;;;;;;44.20;25.07;;;;;;;;;;5029630;28;20239;-70
2021/08/21 03:54:31;;;;;;;35.33;21.75;;;;;;;;;;5047649;28;20950;-73
2021/08/21 03:56:56;;;;;;;38.88;21.67;;;;;;;;;;5049378;28;20176;-70
2021/08/21 03:59:21;;;;;;;41.22;24.30;;;;;;;;;;5046737;28;20261;-69
2021/08/21 04:01:46;;;;;;;40.67;23.58;;;;;;;;;;5049890;28;20232;-70
2021/08/21 04:04:11;;;;;;;36.60;22.55;;;;;;;;;;5045860;28;20627;-70
2021/08/21 04:06:37;;;;;;;40.50;23.00;;;;;;;;;;5049378;28;20639;-71
2021/08/21 04:09:02;;;;;;;44.40;25.23;;;;;;;;;;5048151;28;20636;-70
2021/08/21 04:11:28;;;;;;;38.72;22.63;;;;;;;;;;5048374;28;20171;-71
2021/08/21 04:13:53;;;;;;;39.40;23.92;;;;;;;;;;5046186;28;20178;-70
2021/08/21 04:16:18;;;;;;;40.70;23.63;;;;;;;;;;5029680;28;20554;-71
2021/08/21 04:18:43;;;;;;;46.63;24.48;;;;;;;;;;5051144;28;20232;-71
2021/08/21 04:21:09;;;;;;;43.55;24.95;;;;;;;;;;5050478;28;20182;-71
2021/08/21 04:23:34;;;;;;;48.25;24.95;;;;;;;;;;5043887;28;20184;-70
2021/08/21 04:25:59;;;;;;;42.20;23.77;;;;;;;;;;5051496;28;20513;-71
2021/08/21 04:28:28;;;;;;;47.22;26.00;;;;;;;;;;5032740;28;20213;-71
2021/08/21 04:30:54;;;;;;;56.00;28.02;;;;;;;;;;5044694;28;20312;-71
2021/08/21 04:33:19;;;;;;;51.00;26.55;;;;;;;;;;5051216;28;20666;-71
2021/08/21 04:35:44;;;;;;;56.85;27.88;;;;;;;;;;5052448;28;20177;-71
2021/08/21 04:38:09;;;;;;;49.03;27.20;;;;;;;;;;5050402;28;20190;-71
2021/08/21 04:40:35;;;;;;;51.75;26.17;;;;;;;;;;5053153;28;20180;-71
2021/08/21 04:43:00;;;;;;;47.20;26.65;;;;;;;;;;5054046;28;20599;-71
2021/08/21 04:45:25;;;;;;;50.40;26.77;;;;;;;;;;5050546;28;20662;-71
2021/08/21 04:47:51;;;;;;;55.28;29.75;;;;;;;;;;5046936;28;20201;-71
2021/08/21 04:50:16;;;;;;;66.32;31.27;;;;;;;;;;5051504;28;20611;-71
2021/08/21 04:52:41;;;;;;;57.60;30.08;;;;;;;;;;5039574;28;20173;-71
2021/08/21 04:55:06;;;;;;;55.92;30.08;;;;;;;;;;5048015;28;20639;-71
2021/08/21 04:57:32;;;;;;;59.95;30.10;;;;;;;;;;5048798;28;20247;-71
2021/08/21 04:59:57;;;;;;;58.55;31.27;;;;;;;;;;5047493;28;20183;-70
2021/08/21 05:02:22;;;;;;;56.70;28.85;;;;;;;;;;5030628;28;20552;-71
2021/08/21 05:04:47;;;;;;;62.40;30.87;;;;;;;;;;5038377;28;20651;-71
2021/08/21 05:07:12;;;;;;;54.47;30.75;;;;;;;;;;5044903;28;20507;-71
2021/08/21 05:09:38;;;;;;;55.50;31.38;;;;;;;;;;5048237;28;20229;-70
2021/08/21 05:12:03;;;;;;;55.45;30.38;;;;;;;;;;5045351;28;20206;-71
2021/08/21 05:14:28;;;;;;;56.22;29.80;;;;;;;;;;5049642;28;20260;-70
2021/08/21 05:16:53;;;;;;;52.67;29.75;;;;;;;;;;5048043;28;20196;-71
2021/08/21 05:19:40;;;;;;;56.77;30.97;;;;;;;;;;5048445;28;20238;-71
2021/08/21 05:22:24;;;;;;;51.72;28.73;;;;;;;;;;5045031;28;20414;-72
2021/08/21 05:24:50;;;;;;;53.83;29.20;;;;;;;;;;5043970;28;20239;-71
2021/08/21 05:27:16;;;;;;;52.65;28.90;;;;;;;;;;5056259;28;20201;-71
2021/08/21 05:29:41;;;;;;;53.53;28.85;;;;;;;;;;5051359;28;20194;-70
2021/08/21 05:32:07;;;;;;;56.58;30.90;;;;;;;;;;5047942;28;20590;-70
2021/08/21 05:34:32;;;;;;;57.90;31.73;;;;;;;;;;5048427;28;20177;-71
2021/08/21 05:36:57;;;;;;;53.50;32.63;;;;;;;;;;5048731;28;20639;-71
2021/08/21 05:39:23;;;;;;;55.53;32.03;;;;;;;;;;5049910;28;20177;-71
2021/08/21 05:41:48;;;;;;;56.80;31.23;;;;;;;;;;5049731;28;20188;-71
2021/08/21 05:44:13;;;;;;;59.80;32.80;;;;;;;;;;5033314;28;20590;-71
2021/08/21 05:46:38;;;;;;;56.22;31.77;;;;;;;;;;5050605;28;20235;-71
2021/08/21 05:49:04;;;;;;;50.92;29.75;;;;;;;;;;5049690;28;20202;-71
2021/08/21 05:51:29;;;;;;;60.72;32.78;;;;;;;;;;5047388;28;20201;-71
2021/08/21 05:53:55;;;;;;;48.75;31.02;;;;;;;;;;5048429;28;20180;-71
2021/08/21 05:56:20;;;;;;;56.05;32.95;;;;;;;;;;5051359;28;20210;-71
2021/08/21 05:58:45;;;;;;;47.67;30.05;;;;;;;;;;5033463;28;20197;-70
2021/08/21 06:01:10;;;;;;;51.60;31.15;;;;;;;;;;5056178;28;20235;-70
2021/08/21 06:03:36;;;;;;;46.03;29.05;;;;;;;;;;5050450;28;20236;-71
2021/08/21 06:06:01;;;;;;;48.00;29.58;;;;;;;;;;5045181;28;20178;-71
2021/08/21 06:08:26;;;;;;;45.92;31.10;;;;;;;;;;5053902;28;20197;-71
2021/08/21 06:10:54;;;;;;;40.05;27.92;;;;;;;;;;5050897;28;20635;-71
2021/08/21 06:13:20;;;;;;;40.78;27.38;;;;;;;;;;5027873;28;20186;-70
2021/08/21 06:15:45;;;;;;;41.22;28.02;;;;;;;;;;5046523;28;20181;-71
2021/08/21 06:18:10;;;;;;;36.65;26.60;;;;;;;;;;5043092;28;20912;-71
2021/08/21 06:20:35;;;;;;;34.57;26.23;;;;;;;;;;5050855;28;20231;-70
2021/08/21 06:23:00;;;;;;;33.75;26.30;;;;;;;;;;5051620;28;20419;-70
2021/08/21 06:25:25;;;;;;;34.63;25.90;;;;;;;;;;5036819;28;20181;-70
2021/08/21 06:27:51;;;;;;;30.47;24.37;;;;;;;;;;5051033;28;20264;-70
2021/08/21 06:30:16;;;;;;;33.95;24.23;;;;;;;;;;5053592;28;21721;-71
2021/08/21 06:32:42;;;;;;;31.52;24.23;;;;;;;;;;5051312;28;20177;-71
2021/08/21 06:35:07;;;;;;;30.90;23.50;;;;;;;;;;5054996;28;20637;-70
2021/08/21 06:37:32;;;;;;;30.08;24.10;;;;;;;;;;5041885;28;20579;-69
2021/08/21 06:39:58;;;;;;;29.17;22.55;;;;;;;;;;5033538;28;20260;-69
2021/08/21 06:42:23;;;;;;;27.13;21.33;;;;;;;;;;5050169;28;20639;-70
2021/08/21 06:44:48;;;;;;;24.55;19.88;;;;;;;;;;5051980;28;20643;-70
2021/08/21 06:47:13;;;;;;;22.98;18.92;;;;;;;;;;5046958;28;20686;-70
2021/08/21 06:49:39;;;;;;;22.42;18.83;;;;;;;;;;5054435;28;20198;-69
2021/08/21 06:52:04;;;;;;;20.07;15.97;;;;;;;;;;5072565;28;21005;-69
2021/08/21 06:54:29;;;;;;;20.70;16.65;;;;;;;;;;5077541;28;20434;-68
2021/08/21 06:56:55;;;;;;;19.13;17.13;;;;;;;;;;5075352;28;20192;-69
2021/08/21 06:59:20;;;;;;;17.10;15.25;;;;;;;;;;5071340;28;20209;-69
2021/08/21 07:01:45;;;;;;;19.58;16.08;;;;;;;;;;5075389;28;20238;-68
2021/08/21 07:04:11;;;;;;;16.55;14.80;;;;;;;;;;5073004;28;20196;-68
2021/08/21 07:06:36;;;;;;;16.83;15.00;;;;;;;;;;5076109;28;20192;-68
2021/08/21 07:09:02;;;;;;;14.40;12.50;;;;;;;;;;5071235;28;20237;-68
2021/08/21 07:11:27;;;;;;;16.13;13.38;;;;;;;;;;5059313;28;20186;-68
2021/08/21 07:13:52;;;;;;;14.88;13.38;;;;;;;;;;5053750;28;20237;-68
2021/08/21 07:16:17;;;;;;;15.70;12.25;;;;;;;;;;5054187;28;20245;-68
2021/08/21 07:18:43;;;;;;;15.05;13.45;;;;;;;;;;5055618;28;20189;-69
2021/08/21 07:21:09;;;;;;;17.03;11.80;;;;;;;;;;5042543;28;20656;-69
2021/08/21 07:23:34;;;;;;;14.15;12.63;;;;;;;;;;5057381;28;20406;-69
2021/08/21 07:25:59;;;;;;;13.55;11.05;;;;;;;;;;5053150;28;20180;-68
2021/08/21 07:28:25;;;;;;;11.93;10.50;;;;;;;;;;5043589;28;20224;-69
2021/08/21 07:30:50;;;;;;;13.77;12.38;;;;;;;;;;5044570;28;20549;-68
2021/08/21 07:33:15;;;;;;;13.03;11.03;;;;;;;;;;5045714;28;20179;-68
2021/08/21 07:35:40;;;;;;;14.07;11.20;;;;;;;;;;5052921;28;21064;-68
2021/08/21 07:38:05;;;;;;;14.95;11.13;;;;;;;;;;5033590;28;20435;-68
2021/08/21 07:40:30;;;;;;;13.35;12.02;;;;;;;;;;5050940;28;20180;-68
2021/08/21 07:42:56;;;;;;;13.30;11.23;;;;;;;;;;5052462;28;20185;-69
2021/08/21 07:45:21;;;;;;;12.33;10.63;;;;;;;;;;5052916;28;20457;-68
2021/08/21 07:47:49;;;;;;;13.43;11.60;;;;;;;;;;5049326;28;20212;-68
2021/08/21 07:50:15;;;;;;;15.57;11.52;;;;;;;;;;5048980;28;20334;-68
2021/08/21 07:52:43;;;;;;;13.35;11.95;;;;;;;;;;5048835;28;20526;-69
2021/08/21 07:55:08;;;;;;;16.23;12.65;;;;;;;;;;5050167;28;20586;-68
2021/08/21 07:57:33;;;;;;;14.68;12.50;;;;;;;;;;5050768;28;20186;-68
2021/08/21 07:59:58;;;;;;;12.60;11.27;;;;;;;;;;5050206;28;20646;-69
2021/08/21 08:02:23;;;;;;;15.30;12.33;;;;;;;;;;5050548;28;20415;-68
2021/08/21 08:04:49;;;;;;;13.60;12.20;;;;;;;;;;5052108;28;20464;-68
2021/08/21 08:07:14;;;;;;;15.47;13.67;;;;;;;;;;5052253;28;20709;-69
2021/08/21 08:09:39;;;;;;;18.60;13.00;;;;;;;;;;5052187;28;20258;-67
2021/08/21 08:12:05;;;;;;;14.07;12.03;;;;;;;;;;5049342;28;20659;-68
2021/08/21 08:14:30;;;;;;;17.20;12.13;;;;;;;;;;5051309;28;20434;-68
2021/08/21 08:16:55;;;;;;;13.90;12.13;;;;;;;;;;5052363;28;20173;-67
2021/08/21 08:19:20;;;;;;;16.07;12.17;;;;;;;;;;5052021;28;20924;-67
2021/08/21 08:21:45;;;;;;;14.70;12.70;;;;;;;;;;5051536;28;20176;-67
2021/08/21 08:24:12;;;;;;;14.48;12.45;;;;;;;;;;5050701;28;20549;-67
2021/08/21 08:26:37;;;;;;;14.27;12.80;;;;;;;;;;5052672;28;20651;-68
2021/08/21 08:29:02;;;;;;;16.00;13.47;;;;;;;;;;5051800;28;20247;-67
2021/08/21 08:31:28;;;;;;;16.00;13.83;;;;;;;;;;5052047;28;20414;-68
2021/08/21 08:33:53;;;;;;;15.13;13.20;;;;;;;;;;5052178;28;20846;-68
2021/08/21 08:36:18;;;;;;;15.00;13.50;;;;;;;;;;5052212;28;20161;-68
2021/08/21 08:38:44;;;;;;;14.13;12.18;;;;;;;;;;5048965;28;20666;-67
2021/08/21 08:41:10;;;;;;;15.10;12.68;;;;;;;;;;5052106;28;20710;-67
2021/08/21 08:43:35;;;;;;;13.63;11.85;;;;;;;;;;5052322;28;20186;-67
2021/08/21 08:46:00;;;;;;;14.90;12.75;;;;;;;;;;5047578;28;20205;-68
2021/08/21 08:48:26;;;;;;;12.93;10.88;;;;;;;;;;5043979;28;20194;-68
2021/08/21 08:50:53;;;;;;;10.38;9.30;;;;;;;;;;5051197;28;20202;-68
2021/08/21 08:53:18;;;;;;;12.85;11.52;;;;;;;;;;5049129;28;20282;-68
2021/08/21 08:55:46;;;;;;;15.30;12.50;;;;;;;;;;5049689;28;20642;-68
2021/08/21 08:58:11;;;;;;;12.23;11.00;;;;;;;;;;5047516;28;20201;-67
2021/08/21 09:00:36;;;;;;;12.83;11.53;;;;;;;;;;5051658;28;20169;-67
2021/08/21 09:03:03;;;;;;;13.07;11.52;;;;;;;;;;5051504;28;20427;-68
2021/08/21 09:05:35;;;;;;;12.77;11.38;;;;;;;;;;5051140;28;20180;-68
2021/08/21 09:08:00;;;;;;;11.50;10.35;;;;;;;;;;5049429;28;20211;-67
2021/08/21 09:10:27;;;;;;;11.90;10.63;;;;;;;;;;5050693;28;20194;-67
2021/08/21 09:13:21;;;;;;;9.52;8.63;;;;;;;;;;5050803;28;20170;-68
2021/08/21 09:15:51;;;;;;;11.10;9.40;;;;;;;;;;5028487;28;20277;-67
2021/08/21 09:18:23;;;;;;;9.77;8.88;;;;;;;;;;5051474;28;20601;-67
2021/08/21 09:20:48;;;;;;;10.50;9.50;;;;;;;;;;5055242;28;20185;-66
2021/08/21 09:23:32;;;;;;;12.53;10.00;;;;;;;;;;5046279;28;20173;-68
2021/08/21 09:26:12;;;;;;;12.85;10.40;;;;;;;;;;5047623;28;20213;-68
2021/08/21 09:28:38;;;;;;;10.38;9.38;;;;;;;;;;5047586;28;20212;-68
2021/08/21 09:31:06;;;;;;;11.85;10.65;;;;;;;;;;5047816;28;20177;-68
2021/08/21 09:33:32;;;;;;;11.25;10.07;;;;;;;;;;5049140;28;20267;-68
2021/08/21 09:35:58;;;;;;;11.65;10.55;;;;;;;;;;5050939;28;20208;-68
2021/08/21 09:38:26;;;;;;;13.77;11.60;;;;;;;;;;5049592;28;20185;-68
2021/08/21 09:40:57;;;;;;;12.65;10.77;;;;;;;;;;5051442;28;20181;-69
2021/08/21 09:43:22;;;;;;;11.30;10.18;;;;;;;;;;5051370;28;20710;-68
2021/08/21 09:45:48;;;;;;;11.80;10.45;;;;;;;;;;5046119;28;20304;-68
2021/08/21 09:48:13;;;;;;;10.35;9.25;;;;;;;;;;5050807;28;20201;-68
2021/08/21 09:50:40;;;;;;;11.88;10.77;;;;;;;;;;5050855;28;20208;-67
2021/08/21 09:53:06;;;;;;;10.50;8.88;;;;;;;;;;5029440;28;20235;-68
2021/08/21 09:55:32;;;;;;;10.95;9.50;;;;;;;;;;5045732;28;20252;-68
2021/08/21 09:58:02;;;;;;;11.00;9.52;;;;;;;;;;5037872;28;20289;-68
2021/08/21 10:00:28;;;;;;;10.73;9.63;;;;;;;;;;5045076;28;20177;-68
2021/08/21 10:02:55;;;;;;;12.77;11.40;;;;;;;;;;5046493;28;20189;-68
2021/08/21 10:05:20;;;;;;;11.18;10.18;;;;;;;;;;5047429;28;20186;-68
2021/08/21 10:07:49;;;;;;;12.27;11.10;;;;;;;;;;5048980;28;20300;-68
2021/08/21 10:10:16;;;;;;;11.75;10.57;;;;;;;;;;5049237;28;20201;-68
2021/08/21 10:12:45;;;;;;;12.90;10.20;;;;;;;;;;5050527;28;20166;-68
2021/08/21 10:15:12;;;;;;;14.45;10.85;;;;;;;;;;5055973;28;20212;-68
2021/08/21 10:17:38;;;;;;;11.98;10.73;;;;;;;;;;5050785;28;20280;-68
2021/08/21 10:20:03;;;;;;;12.65;10.77;;;;;;;;;;5049385;28;20189;-68
2021/08/21 10:22:29;;;;;;;15.50;11.60;;;;;;;;;;5050931;28;20605;-68
2021/08/21 10:24:54;;;;;;;13.50;11.40;;;;;;;;;;5048109;28;20517;-68
2021/08/21 10:27:23;;;;;;;12.45;10.65;;;;;;;;;;5050150;28;20201;-68
2021/08/21 10:30:22;;;;;;;11.57;10.48;;;;;;;;;;5050339;28;20209;-68
2021/08/21 10:32:57;;;;;;;10.93;9.77;;;;;;;;;;4995142;28;20252;-68
2021/08/21 10:35:39;;;;;;;12.63;10.52;;;;;;;;;;5043145;28;20170;-68
2021/08/21 10:38:24;;;;;;;13.65;11.05;;;;;;;;;;5050397;28;20225;-69
2021/08/21 10:40:50;;;;;;;11.60;10.52;;;;;;;;;;5026032;28;20205;-68
2021/08/21 10:43:15;;;;;;;10.77;9.33;;;;;;;;;;5036369;28;20220;-68
2021/08/21 10:45:41;;;;;;;12.17;9.83;;;;;;;;;;5049078;28;20821;-68
2021/08/21 10:48:07;;;;;;;11.25;9.93;;;;;;;;;;5028449;28;20201;-69
2021/08/21 10:50:34;;;;;;;10.80;9.80;;;;;;;;;;5052899;28;20209;-69
2021/08/21 10:53:03;;;;;;;10.38;9.27;;;;;;;;;;5048249;28;20201;-68
2021/08/21 10:55:36;;;;;;;11.13;9.95;;;;;;;;;;5056867;28;20253;-68
2021/08/21 10:58:02;;;;;;;11.65;8.98;;;;;;;;;;5060397;28;20193;-68
2021/08/21 11:00:39;;;;;;;10.30;9.25;;;;;;;;;;5065077;28;20177;-68
2021/08/21 11:03:08;;;;;;;15.23;11.40;;;;;;;;;;5064094;28;20180;-68
2021/08/21 11:05:52;;;;;;;10.57;9.57;;;;;;;;;;5039620;28;20700;-68
2021/08/21 11:08:18;;;;;;;14.20;9.68;;;;;;;;;;5047632;28;20224;-68
2021/08/21 11:10:43;;;;;;;10.68;9.50;;;;;;;;;;5062130;28;20197;-68
2021/08/21 11:13:12;;;;;;;11.20;9.52;;;;;;;;;;5052233;28;20711;-68
2021/08/21 11:15:37;;;;;;;8.65;7.75;;;;;;;;;;5047682;28;20185;-68
2021/08/21 11:18:05;;;;;;;9.73;8.40;;;;;;;;;;5037857;28;20733;-68
2021/08/21 11:20:32;;;;;;;7.72;7.03;;;;;;;;;;5051527;28;20178;-68
2021/08/21 11:23:07;;;;;;;7.10;6.38;;;;;;;;;;5048822;28;20177;-68
2021/08/21 11:25:32;;;;;;;7.65;6.30;;;;;;;;;;5051153;28;20263;-68
2021/08/21 11:28:07;;;;;;;9.07;7.50;;;;;;;;;;5051254;28;20296;-68
2021/08/21 11:30:36;;;;;;;6.88;6.10;;;;;;;;;;5050106;28;20221;-67
2021/08/21 11:33:03;;;;;;;6.50;5.82;;;;;;;;;;5052512;28;20650;-68
2021/08/21 11:35:28;;;;;;;6.03;5.43;;;;;;;;;;5049207;28;20184;-68
2021/08/21 11:37:53;;;;;;;5.60;5.10;;;;;;;;;;5045590;28;20201;-68
2021/08/21 11:40:19;;;;;;;8.13;7.30;;;;;;;;;;5049678;28;20223;-67
2021/08/21 11:42:45;;;;;;;6.45;5.70;;;;;;;;;;5050988;28;20655;-68
2021/08/21 11:45:12;;;;;;;5.68;4.75;;;;;;;;;;5045453;28;20185;-68
2021/08/21 11:47:37;;;;;;;8.40;5.20;;;;;;;;;;5051673;28;20197;-67
2021/08/21 11:50:16;;;;;;;8.13;4.87;;;;;;;;;;5049341;28;20224;-68
2021/08/21 11:52:45;;;;;;;6.45;5.05;;;;;;;;;;5049535;28;20693;-68
2021/08/21 11:55:11;;;;;;;5.55;4.55;;;;;;;;;;5050495;28;20209;-68
2021/08/21 11:57:43;;;;;;;5.85;4.63;;;;;;;;;;5050331;28;20275;-68
2021/08/21 12:00:11;;;;;;;5.30;4.63;;;;;;;;;;5047303;28;20334;-68
2021/08/21 12:02:46;;;;;;;5.15;4.65;;;;;;;;;;5052196;28;20180;-68
2021/08/21 12:05:12;;;;;;;5.82;4.72;;;;;;;;;;5050197;28;20210;-68
2021/08/21 12:07:37;;;;;;;6.38;5.22;;;;;;;;;;5049929;28;20194;-68
2021/08/21 12:10:02;;;;;;;6.60;5.03;;;;;;;;;;5052207;28;20736;-67
2021/08/21 12:12:33;;;;;;;7.65;6.63;;;;;;;;;;5051308;28;20186;-67
2021/08/21 12:14:59;;;;;;;7.13;6.07;;;;;;;;;;5047470;28;20205;-67
2021/08/21 12:17:24;;;;;;;8.80;7.25;;;;;;;;;;5049269;28;20190;-68
2021/08/21 12:19:49;;;;;;;8.07;6.22;;;;;;;;;;5043853;28;20239;-67
2021/08/21 12:22:15;;;;;;;7.60;6.78;;;;;;;;;;5051979;28;20582;-68
2021/08/21 12:24:53;;;;;;;7.32;5.00;;;;;;;;;;5050759;28;20174;-68
2021/08/21 12:27:23;;;;;;;6.18;4.93;;;;;;;;;;5034057;28;20224;-67
2021/08/21 12:30:03;;;;;;;6.28;4.28;;;;;;;;;;5048272;28;20740;-67
2021/08/21 12:32:28;;;;;;;5.93;4.78;;;;;;;;;;5048469;28;20639;-68
2021/08/21 12:35:14;;;;;;;4.77;4.07;;;;;;;;;;5048465;28;20191;-68
2021/08/21 12:37:39;;;;;;;5.40;4.55;;;;;;;;;;5042581;28;20247;-67
2021/08/21 12:40:06;;;;;;;6.72;4.95;;;;;;;;;;5051081;28;20185;-68
2021/08/21 12:42:31;;;;;;;6.53;4.85;;;;;;;;;;5049072;28;20231;-68
2021/08/21 12:44:56;;;;;;;4.93;4.13;;;;;;;;;;5049936;28;20185;-68
2021/08/21 12:47:21;;;;;;;4.82;3.72;;;;;;;;;;5049643;28;20198;-68
2021/08/21 12:49:51;;;;;;;4.45;3.80;;;;;;;;;;5046875;28;20200;-68
2021/08/21 12:52:19;;;;;;;5.50;4.93;;;;;;;;;;5049983;28;20162;-68
2021/08/21 12:54:44;;;;;;;5.53;4.55;;;;;;;;;;5046937;28;20239;-68
2021/08/21 12:57:10;;;;;;;6.05;4.50;;;;;;;;;;5049005;28;20284;-68
2021/08/21 12:59:35;;;;;;;4.67;4.27;;;;;;;;;;5046352;28;20643;-68
2021/08/21 13:02:01;;;;;;;5.05;3.80;;;;;;;;;;5047690;28;20246;-67
2021/08/21 13:04:27;;;;;;;5.63;4.30;;;;;;;;;;5048031;28;20251;-68
2021/08/21 13:07:00;;;;;;;6.60;5.15;;;;;;;;;;5046517;28;20190;-68
2021/08/21 13:09:25;;;;;;;5.22;3.88;;;;;;;;;;5049116;28;20201;-68
2021/08/21 13:11:50;;;;;;;6.37;3.53;;;;;;;;;;5049874;28;20184;-68
2021/08/21 13:14:16;;;;;;;5.20;4.35;;;;;;;;;;5049824;28;20176;-67
2021/08/21 13:16:44;;;;;;;3.78;3.40;;;;;;;;;;5043983;28;20181;-67
2021/08/21 13:19:09;;;;;;;4.90;3.53;;;;;;;;;;5046883;28;20189;-67
2021/08/21 13:21:34;;;;;;;5.47;4.67;;;;;;;;;;5050734;28;20177;-68
2021/08/21 13:23:59;;;;;;;4.70;3.73;;;;;;;;;;5048388;28;20559;-67
2021/08/21 13:26:25;;;;;;;6.37;4.23;;;;;;;;;;5045111;28;20184;-67
2021/08/21 13:28:52;;;;;;;5.87;3.87;;;;;;;;;;5045349;28;20638;-68
2021/08/21 13:31:17;;;;;;;4.65;3.92;;;;;;;;;;5047777;28;20492;-68
2021/08/21 13:33:42;;;;;;;5.65;3.60;;;;;;;;;;5015383;28;20177;-67
2021/08/21 13:36:08;;;;;;;3.50;3.20;;;;;;;;;;5041579;28;20209;-67
2021/08/21 13:38:33;;;;;;;5.07;3.80;;;;;;;;;;5028960;28;20223;-67
2021/08/21 13:40:58;;;;;;;4.80;3.37;;;;;;;;;;5031543;28;20426;-68
2021/08/21 13:43:23;;;;;;;4.37;3.23;;;;;;;;;;5039184;28;20444;-68
2021/08/21 13:45:49;;;;;;;5.73;3.60;;;;;;;;;;5049320;28;20626;-68
2021/08/21 13:48:14;;;;;;;4.22;3.83;;;;;;;;;;5046441;28;20248;-69
2021/08/21 13:50:39;;;;;;;5.72;3.03;;;;;;;;;;5048535;28;20201;-68
2021/08/21 13:53:05;;;;;;;4.33;3.60;;;;;;;;;;5049654;28;20173;-68
2021/08/21 13:55:30;;;;;;;4.13;3.60;;;;;;;;;;5041156;28;20418;-68
2021/08/21 13:57:55;;;;;;;4.32;3.35;;;;;;;;;;5029420;28;20446;-68
2021/08/21 14:00:21;;;;;;;3.72;3.30;;;;;;;;;;5039684;28;20177;-68
2021/08/21 14:02:46;;;;;;;3.58;3.22;;;;;;;;;;5046620;28;20181;-68
2021/08/21 14:05:11;;;;;;;3.85;3.28;;;;;;;;;;5048259;28;20169;-68
2021/08/21 14:07:37;;;;;;;3.80;3.03;;;;;;;;;;5047621;28;20288;-68
2021/08/21 14:10:03;;;;;;;5.20;3.30;;;;;;;;;;5044887;28;20197;-68
2021/08/21 14:12:28;;;;;;;3.75;3.28;;;;;;;;;;5039107;28;20573;-68
2021/08/21 14:14:54;;;;;;;5.63;3.50;;;;;;;;;;5042869;28;20182;-68
2021/08/21 14:17:20;;;;;;;3.60;2.97;;;;;;;;;;5050109;28;20194;-69
2021/08/21 14:19:45;;;;;;;8.25;3.10;;;;;;;;;;5043585;28;20645;-68